Weather at Melbourne International Airport

Public forecast

Using degrees Celsius for public forecast. Weather courtesy of forecast.io.

Current aviation weather report (METAR) for Melbourne International Airport

Report is more than 6 hours old.

2022/11/14 15:30 (retrieved 2 years ago)

YMML 141530Z 26009KT CAVOK 08/06 Q1011

Aviation forecast (TAF) for Melbourne International Airport

Forecast is more than 12 hours old.

2023/02/22 18:18 Ammendment (retrieved 1 year ago)

TAF AMD YMML 221710Z 2218/2400 01018G32KT CAVOK FM222200 36025G40KT CAVOK FM230100 36018G28KT CAVOK FM230300 02010KT CAVOK FM231700 01015G28KT CAVOK FM232200 01025G40KT CAVOK